sensor_id;sensor_type;location;lat;lon;timestamp;pressure;altitude;pressure_sealevel;temperature;humidity
68654;BME280;55636;51.108;13.622;2023-09-30T00:00:46;100729.09;;;21.67;46.87
68654;BME280;55636;51.108;13.622;2023-09-30T00:01:48;100726.28;;;21.67;47.03
68654;BME280;55636;51.108;13.622;2023-09-30T00:02:51;100736.19;;;21.64;47.28
68654;BME280;55636;51.108;13.622;2023-09-30T00:03:54;100739.00;;;21.64;46.99
68654;BME280;55636;51.108;13.622;2023-09-30T00:04:57;100734.34;;;21.60;47.53
68654;BME280;55636;51.108;13.622;2023-09-30T00:06:00;100743.97;;;21.59;47.54
68654;BME280;55636;51.108;13.622;2023-09-30T00:07:02;100740.63;;;21.56;47.46
68654;BME280;55636;51.108;13.622;2023-09-30T00:08:05;100737.84;;;21.56;47.66
68654;BME280;55636;51.108;13.622;2023-09-30T00:09:09;100742.13;;;21.54;47.38
68654;BME280;55636;51.108;13.622;2023-09-30T00:10:14;100740.97;;;21.55;47.65
68654;BME280;55636;51.108;13.622;2023-09-30T00:11:17;100748.59;;;21.54;47.50
68654;BME280;55636;51.108;13.622;2023-09-30T00:12:20;100748.41;;;21.51;47.64
68654;BME280;55636;51.108;13.622;2023-09-30T00:13:23;100745.09;;;21.49;47.94
68654;BME280;55636;51.108;13.622;2023-09-30T00:14:26;100745.09;;;21.49;47.98
68654;BME280;55636;51.108;13.622;2023-09-30T00:15:28;100749.03;;;21.48;48.38
68654;BME280;55636;51.108;13.622;2023-09-30T00:16:31;100751.38;;;21.46;48.33
68654;BME280;55636;51.108;13.622;2023-09-30T00:17:34;100752.84;;;21.43;48.54
68654;BME280;55636;51.108;13.622;2023-09-30T00:18:36;100748.47;;;21.37;49.25
68654;BME280;55636;51.108;13.622;2023-09-30T00:19:39;100755.59;;;21.34;49.18
68654;BME280;55636;51.108;13.622;2023-09-30T00:20:41;100758.72;;;21.33;49.12
68654;BME280;55636;51.108;13.622;2023-09-30T00:21:44;100762.00;;;21.26;49.66
68654;BME280;55636;51.108;13.622;2023-09-30T00:22:47;100758.69;;;21.24;49.65
68654;BME280;55636;51.108;13.622;2023-09-30T00:23:50;100757.66;;;21.20;49.57
68654;BME280;55636;51.108;13.622;2023-09-30T00:24:52;100751.38;;;21.14;49.97
68654;BME280;55636;51.108;13.622;2023-09-30T00:25:55;100755.13;;;21.10;50.25
68654;BME280;55636;51.108;13.622;2023-09-30T00:26:58;100756.44;;;21.03;50.38
68654;BME280;55636;51.108;13.622;2023-09-30T00:28:00;100759.06;;;21.00;50.27
68654;BME280;55636;51.108;13.622;2023-09-30T00:29:03;100760.22;;;20.99;50.44
68654;BME280;55636;51.108;13.622;2023-09-30T00:30:08;100767.31;;;20.96;50.60
68654;BME280;55636;51.108;13.622;2023-09-30T00:31:11;100765.97;;;20.94;50.56
68654;BME280;55636;51.108;13.622;2023-09-30T00:32:13;100774.19;;;20.90;50.77
68654;BME280;55636;51.108;13.622;2023-09-30T00:33:16;100770.91;;;20.88;50.86
68654;BME280;55636;51.108;13.622;2023-09-30T00:34:18;100776.81;;;20.86;50.85
68654;BME280;55636;51.108;13.622;2023-09-30T00:35:20;100777.13;;;20.85;50.84
68654;BME280;55636;51.108;13.622;2023-09-30T00:36:23;100766.56;;;20.82;50.92
68654;BME280;55636;51.108;13.622;2023-09-30T00:37:26;100775.31;;;20.80;50.90
68654;BME280;55636;51.108;13.622;2023-09-30T00:38:29;100773.66;;;20.79;50.94
68654;BME280;55636;51.108;13.622;2023-09-30T00:39:32;100777.06;;;20.76;51.50
68654;BME280;55636;51.108;13.622;2023-09-30T00:40:35;100781.06;;;20.75;51.41
68654;BME280;55636;51.108;13.622;2023-09-30T00:41:39;100774.91;;;20.73;51.35
68654;BME280;55636;51.108;13.622;2023-09-30T00:42:42;100772.44;;;20.71;51.21
68654;BME280;55636;51.108;13.622;2023-09-30T00:43:48;100775.56;;;20.70;51.44
68654;BME280;55636;51.108;13.622;2023-09-30T00:44:51;100769.41;;;20.68;51.70
68654;BME280;55636;51.108;13.622;2023-09-30T00:46:02;100773.66;;;20.65;51.61
68654;BME280;55636;51.108;13.622;2023-09-30T00:47:08;100779.28;;;20.65;51.69
68654;BME280;55636;51.108;13.622;2023-09-30T00:48:11;100780.75;;;20.63;51.95
68654;BME280;55636;51.108;13.622;2023-09-30T00:49:14;100785.03;;;20.60;51.97
68654;BME280;55636;51.108;13.622;2023-09-30T00:50:19;100785.66;;;20.57;51.96
68654;BME280;55636;51.108;13.622;2023-09-30T00:51:23;100784.94;;;20.51;52.18
68654;BME280;55636;51.108;13.622;2023-09-30T00:52:26;100791.22;;;20.48;52.29
68654;BME280;55636;51.108;13.622;2023-09-30T00:53:29;100793.50;;;20.46;52.38
68654;BME280;55636;51.108;13.622;2023-09-30T00:54:33;100800.06;;;20.41;52.07
68654;BME280;55636;51.108;13.622;2023-09-30T00:55:35;100797.06;;;20.38;52.31
68654;BME280;55636;51.108;13.622;2023-09-30T00:56:44;100810.59;;;20.36;52.16
68654;BME280;55636;51.108;13.622;2023-09-30T00:57:47;100813.19;;;20.32;52.36
68654;BME280;55636;51.108;13.622;2023-09-30T00:58:50;100815.25;;;20.26;52.72
68654;BME280;55636;51.108;13.622;2023-09-30T00:59:53;100815.59;;;20.25;52.58
68654;BME280;55636;51.108;13.622;2023-09-30T01:00:56;100808.63;;;20.22;52.22
68654;BME280;55636;51.108;13.622;2023-09-30T01:02:00;100815.22;;;20.18;52.45
68654;BME280;55636;51.108;13.622;2023-09-30T01:03:04;100811.66;;;20.12;52.39
68654;BME280;55636;51.108;13.622;2023-09-30T01:04:07;100821.03;;;20.07;52.85
68654;BME280;55636;51.108;13.622;2023-09-30T01:05:12;100810.25;;;20.01;52.54
68654;BME280;55636;51.108;13.622;2023-09-30T01:06:15;100812.84;;;19.97;52.72
68654;BME280;55636;51.108;13.622;2023-09-30T01:07:17;100820.72;;;19.95;52.71
68654;BME280;55636;51.108;13.622;2023-09-30T01:08:20;100819.34;;;19.92;52.85
68654;BME280;55636;51.108;13.622;2023-09-30T01:09:24;100818.63;;;19.87;52.88
68654;BME280;55636;51.108;13.622;2023-09-30T01:10:27;100818.44;;;19.83;52.65
68654;BME280;55636;51.108;13.622;2023-09-30T01:11:30;100823.81;;;19.80;52.75
68654;BME280;55636;51.108;13.622;2023-09-30T01:12:32;100816.88;;;19.77;53.17
68654;BME280;55636;51.108;13.622;2023-09-30T01:13:36;100819.16;;;19.75;53.07
68654;BME280;55636;51.108;13.622;2023-09-30T01:14:38;100818.97;;;19.71;53.23
68654;BME280;55636;51.108;13.622;2023-09-30T01:15:42;100824.66;;;19.66;53.55
68654;BME280;55636;51.108;13.622;2023-09-30T01:16:45;100818.56;;;19.64;53.54
68654;BME280;55636;51.108;13.622;2023-09-30T01:17:47;100821.97;;;19.61;53.42
68654;BME280;55636;51.108;13.622;2023-09-30T01:18:51;100818.94;;;19.57;53.36
68654;BME280;55636;51.108;13.622;2023-09-30T01:19:57;100814.28;;;19.53;53.50
68654;BME280;55636;51.108;13.622;2023-09-30T01:21:03;100814.38;;;19.48;53.56
68654;BME280;55636;51.108;13.622;2023-09-30T01:22:06;100818.97;;;19.43;53.49
68654;BME280;55636;51.108;13.622;2023-09-30T01:23:11;100817.59;;;19.41;53.55
68654;BME280;55636;51.108;13.622;2023-09-30T01:24:14;100823.00;;;19.37;53.79
68654;BME280;55636;51.108;13.622;2023-09-30T01:25:17;100822.47;;;19.35;53.47
68654;BME280;55636;51.108;13.622;2023-09-30T01:26:19;100824.75;;;19.33;53.70
68654;BME280;55636;51.108;13.622;2023-09-30T01:27:22;100828.16;;;19.30;53.82
68654;BME280;55636;51.108;13.622;2023-09-30T01:28:25;100824.84;;;19.28;53.88
68654;BME280;55636;51.108;13.622;2023-09-30T01:29:28;100829.63;;;19.27;53.75
68654;BME280;55636;51.108;13.622;2023-09-30T01:30:31;100831.06;;;19.25;54.11
68654;BME280;55636;51.108;13.622;2023-09-30T01:31:35;100833.88;;;19.25;54.03
68654;BME280;55636;51.108;13.622;2023-09-30T01:32:38;100828.38;;;19.20;54.22
68654;BME280;55636;51.108;13.622;2023-09-30T01:33:41;100831.44;;;19.18;54.55
68654;BME280;55636;51.108;13.622;2023-09-30T01:34:43;100828.97;;;19.17;54.04
68654;BME280;55636;51.108;13.622;2023-09-30T01:35:46;100834.31;;;19.13;54.27
68654;BME280;55636;51.108;13.622;2023-09-30T01:36:48;100833.50;;;19.13;54.14
68654;BME280;55636;51.108;13.622;2023-09-30T01:37:51;100845.31;;;19.09;54.35
68654;BME280;55636;51.108;13.622;2023-09-30T01:38:53;100850.38;;;19.07;54.35
68654;BME280;55636;51.108;13.622;2023-09-30T01:39:56;100843.09;;;19.06;54.09
68654;BME280;55636;51.108;13.622;2023-09-30T01:40:58;100850.47;;;19.02;54.41
68654;BME280;55636;51.108;13.622;2023-09-30T01:42:02;100846.41;;;18.94;54.61
68654;BME280;55636;51.108;13.622;2023-09-30T01:43:08;100858.22;;;18.91;54.69
68654;BME280;55636;51.108;13.622;2023-09-30T01:44:10;100860.16;;;18.91;54.96
68654;BME280;55636;51.108;13.622;2023-09-30T01:45:12;100864.19;;;18.85;55.59
68654;BME280;55636;51.108;13.622;2023-09-30T01:46:15;100862.00;;;18.82;55.83
68654;BME280;55636;51.108;13.622;2023-09-30T01:47:18;100866.78;;;18.81;55.75
68654;BME280;55636;51.108;13.622;2023-09-30T01:48:21;100862.63;;;18.78;55.62
68654;BME280;55636;51.108;13.622;2023-09-30T01:49:23;100863.75;;;18.77;55.64
68654;BME280;55636;51.108;13.622;2023-09-30T01:50:26;100874.44;;;18.75;56.04
68654;BME280;55636;51.108;13.622;2023-09-30T01:51:29;100866.63;;;18.72;55.74
68654;BME280;55636;51.108;13.622;2023-09-30T01:52:32;100869.72;;;18.71;55.90
68654;BME280;55636;51.108;13.622;2023-09-30T01:53:35;100869.81;;;18.66;56.21
68654;BME280;55636;51.108;13.622;2023-09-30T01:54:38;100870.63;;;18.66;55.93
68654;BME280;55636;51.108;13.622;2023-09-30T01:55:40;100874.84;;;18.64;55.88
68654;BME280;55636;51.108;13.622;2023-09-30T01:56:43;100878.81;;;18.63;56.19
68654;BME280;55636;51.108;13.622;2023-09-30T01:57:45;100873.00;;;18.59;56.25
68654;BME280;55636;51.108;13.622;2023-09-30T01:58:47;100884.78;;;18.56;56.22
68654;BME280;55636;51.108;13.622;2023-09-30T01:59:50;100873.38;;;18.52;56.49
68654;BME280;55636;51.108;13.622;2023-09-30T02:00:54;100875.94;;;18.49;56.45
68654;BME280;55636;51.108;13.622;2023-09-30T02:02:04;100875.69;;;18.45;56.52
68654;BME280;55636;51.108;13.622;2023-09-30T02:03:06;100882.72;;;18.42;56.40
68654;BME280;55636;51.108;13.622;2023-09-30T02:04:10;100873.81;;;18.40;56.27
68654;BME280;55636;51.108;13.622;2023-09-30T02:05:12;100872.97;;;18.40;56.13
68654;BME280;55636;51.108;13.622;2023-09-30T02:06:15;100882.78;;;18.37;56.12
68654;BME280;55636;51.108;13.622;2023-09-30T02:07:19;100883.41;;;18.34;55.97
68654;BME280;55636;51.108;13.622;2023-09-30T02:08:21;100880.34;;;18.31;56.15
68654;BME280;55636;51.108;13.622;2023-09-30T02:09:25;100879.53;;;18.30;55.54
68654;BME280;55636;51.108;13.622;2023-09-30T02:10:27;100882.63;;;18.28;55.76
68654;BME280;55636;51.108;13.622;2023-09-30T02:11:30;100887.13;;;18.24;55.75
68654;BME280;55636;51.108;13.622;2023-09-30T02:12:33;100887.19;;;18.19;55.31
68654;BME280;55636;51.108;13.622;2023-09-30T02:13:35;100891.41;;;18.17;55.29
68654;BME280;55636;51.108;13.622;2023-09-30T02:14:38;100892.56;;;18.16;55.32
68654;BME280;55636;51.108;13.622;2023-09-30T02:15:45;100892.03;;;18.14;55.18
68654;BME280;55636;51.108;13.622;2023-09-30T02:16:48;100893.47;;;18.11;55.12
68654;BME280;55636;51.108;13.622;2023-09-30T02:17:50;100898.28;;;18.05;55.02
68654;BME280;55636;51.108;13.622;2023-09-30T02:18:53;100900.53;;;18.03;54.79
68654;BME280;55636;51.108;13.622;2023-09-30T02:19:56;100903.34;;;18.03;54.58
68654;BME280;55636;51.108;13.622;2023-09-30T02:20:58;100904.47;;;18.02;54.54
68654;BME280;55636;51.108;13.622;2023-09-30T02:22:02;100903.94;;;18.00;54.59
68654;BME280;55636;51.108;13.622;2023-09-30T02:23:04;100905.38;;;17.98;54.36
68654;BME280;55636;51.108;13.622;2023-09-30T02:24:08;100908.16;;;17.98;54.29
68654;BME280;55636;51.108;13.622;2023-09-30T02:25:11;100904.81;;;17.95;54.48
68654;BME280;55636;51.108;13.622;2023-09-30T02:26:15;100904.00;;;17.95;54.50
68654;BME280;55636;51.108;13.622;2023-09-30T02:27:18;100906.78;;;17.95;54.75
68654;BME280;55636;51.108;13.622;2023-09-30T02:28:20;100905.94;;;17.94;54.49
68654;BME280;55636;51.108;13.622;2023-09-30T02:29:22;100907.63;;;17.95;54.72
68654;BME280;55636;51.108;13.622;2023-09-30T02:30:25;100907.09;;;17.93;54.62
68654;BME280;55636;51.108;13.622;2023-09-30T02:31:27;100905.44;;;17.92;54.57
68654;BME280;55636;51.108;13.622;2023-09-30T02:32:30;100914.13;;;17.91;54.86
68654;BME280;55636;51.108;13.622;2023-09-30T02:33:33;100920.00;;;17.89;54.63
68654;BME280;55636;51.108;13.622;2023-09-30T02:34:38;100909.09;;;17.88;54.85
68654;BME280;55636;51.108;13.622;2023-09-30T02:35:45;100917.47;;;17.88;54.69
68654;BME280;55636;51.108;13.622;2023-09-30T02:36:47;100915.00;;;17.86;54.88
68654;BME280;55636;51.108;13.622;2023-09-30T02:37:50;100913.31;;;17.85;54.90
68654;BME280;55636;51.108;13.622;2023-09-30T02:38:54;100926.47;;;17.85;54.79
68654;BME280;55636;51.108;13.622;2023-09-30T02:39:56;100926.78;;;17.83;54.74
68654;BME280;55636;51.108;13.622;2023-09-30T02:40:59;100927.59;;;17.84;54.46
68654;BME280;55636;51.108;13.622;2023-09-30T02:42:02;100928.19;;;17.81;54.59
68654;BME280;55636;51.108;13.622;2023-09-30T02:43:07;100932.41;;;17.78;54.79
68654;BME280;55636;51.108;13.622;2023-09-30T02:44:10;100937.16;;;17.77;54.42
68654;BME280;55636;51.108;13.622;2023-09-30T02:45:12;100940.25;;;17.76;54.70
68654;BME280;55636;51.108;13.622;2023-09-30T02:46:15;100941.38;;;17.75;54.05
68654;BME280;55636;51.108;13.622;2023-09-30T02:47:18;100940.00;;;17.72;53.90
68654;BME280;55636;51.108;13.622;2023-09-30T02:48:20;100936.38;;;17.72;53.69
68654;BME280;55636;51.108;13.622;2023-09-30T02:49:23;100948.97;;;17.69;53.15
68654;BME280;55636;51.108;13.622;2023-09-30T02:50:26;100948.72;;;17.66;52.38
68654;BME280;55636;51.108;13.622;2023-09-30T02:51:28;100949.88;;;17.65;52.32
68654;BME280;55636;51.108;13.622;2023-09-30T02:52:32;100952.13;;;17.62;52.23
68654;BME280;55636;51.108;13.622;2023-09-30T02:53:34;100955.22;;;17.61;51.63
68654;BME280;55636;51.108;13.622;2023-09-30T02:54:36;100962.75;;;17.60;51.65
68654;BME280;55636;51.108;13.622;2023-09-30T02:55:40;100962.53;;;17.57;51.66
68654;BME280;55636;51.108;13.622;2023-09-30T02:56:44;100963.09;;;17.54;51.33
68654;BME280;55636;51.108;13.622;2023-09-30T02:57:48;100970.66;;;17.53;51.38
68654;BME280;55636;51.108;13.622;2023-09-30T02:58:52;100962.56;;;17.52;50.96
68654;BME280;55636;51.108;13.622;2023-09-30T02:59:54;100964.81;;;17.50;51.10
68654;BME280;55636;51.108;13.622;2023-09-30T03:00:58;100972.06;;;17.45;50.62
68654;BME280;55636;51.108;13.622;2023-09-30T03:02:02;100976.53;;;17.46;50.79
68654;BME280;55636;51.108;13.622;2023-09-30T03:03:14;100972.38;;;17.44;50.38
68654;BME280;55636;51.108;13.622;2023-09-30T03:04:17;100974.31;;;17.43;50.41
68654;BME280;55636;51.108;13.622;2023-09-30T03:05:22;100974.91;;;17.40;50.16
68654;BME280;55636;51.108;13.622;2023-09-30T03:06:25;100970.44;;;17.39;50.37
68654;BME280;55636;51.108;13.622;2023-09-30T03:07:29;100978.00;;;17.39;49.99
68654;BME280;55636;51.108;13.622;2023-09-30T03:08:32;100983.03;;;17.37;49.94
68654;BME280;55636;51.108;13.622;2023-09-30T03:09:34;100982.78;;;17.33;49.55
68654;BME280;55636;51.108;13.622;2023-09-30T03:10:38;100977.50;;;17.32;49.83
68654;BME280;55636;51.108;13.622;2023-09-30T03:11:43;100984.75;;;17.33;49.65
68654;BME280;55636;51.108;13.622;2023-09-30T03:12:47;100984.19;;;17.30;49.48
68654;BME280;55636;51.108;13.622;2023-09-30T03:13:50;100985.59;;;17.28;49.80
68654;BME280;55636;51.108;13.622;2023-09-30T03:14:54;100987.88;;;17.26;49.35
68654;BME280;55636;51.108;13.622;2023-09-30T03:15:57;100989.81;;;17.25;49.56
68654;BME280;55636;51.108;13.622;2023-09-30T03:16:59;100999.03;;;17.26;49.46
68654;BME280;55636;51.108;13.622;2023-09-30T03:18:01;101004.06;;;17.24;49.41
68654;BME280;55636;51.108;13.622;2023-09-30T03:19:05;100992.38;;;17.22;49.47
68654;BME280;55636;51.108;13.622;2023-09-30T03:20:11;100995.19;;;17.17;49.34
68654;BME280;55636;51.108;13.622;2023-09-30T03:21:21;101002.72;;;17.16;49.40
68654;BME280;55636;51.108;13.622;2023-09-30T03:22:26;100994.66;;;17.15;49.22
68654;BME280;55636;51.108;13.622;2023-09-30T03:23:29;101007.22;;;17.12;49.45
68654;BME280;55636;51.108;13.622;2023-09-30T03:24:33;101008.34;;;17.11;49.25
68654;BME280;55636;51.108;13.622;2023-09-30T03:25:35;101011.44;;;17.09;49.37
68654;BME280;55636;51.108;13.622;2023-09-30T03:26:38;101013.41;;;17.09;49.28
68654;BME280;55636;51.108;13.622;2023-09-30T03:27:47;101008.66;;;17.04;49.47
68654;BME280;55636;51.108;13.622;2023-09-30T03:28:49;101010.94;;;17.02;49.23
68654;BME280;55636;51.108;13.622;2023-09-30T03:29:52;101019.00;;;17.04;49.58
68654;BME280;55636;51.108;13.622;2023-09-30T03:30:55;101016.50;;;17.02;49.47
68654;BME280;55636;51.108;13.622;2023-09-30T03:31:59;101017.06;;;16.99;49.55
68654;BME280;55636;51.108;13.622;2023-09-30T03:33:01;101022.13;;;16.97;49.42
68654;BME280;55636;51.108;13.622;2023-09-30T03:34:07;101024.34;;;16.95;49.57
68654;BME280;55636;51.108;13.622;2023-09-30T03:35:11;101022.69;;;16.94;49.61
68654;BME280;55636;51.108;13.622;2023-09-30T03:36:17;101041.97;;;16.90;49.63
68654;BME280;55636;51.108;13.622;2023-09-30T03:37:20;101031.94;;;16.89;49.61
68654;BME280;55636;51.108;13.622;2023-09-30T03:38:23;101038.34;;;16.85;49.35
68654;BME280;55636;51.108;13.622;2023-09-30T03:39:26;101047.84;;;16.84;49.20
68654;BME280;55636;51.108;13.622;2023-09-30T03:40:30;101042.84;;;16.80;49.57
68654;BME280;55636;51.108;13.622;2023-09-30T03:41:36;101038.38;;;16.79;49.28
68654;BME280;55636;51.108;13.622;2023-09-30T03:42:42;101039.50;;;16.78;49.21
68654;BME280;55636;51.108;13.622;2023-09-30T03:43:45;101040.63;;;16.77;49.51
68654;BME280;55636;51.108;13.622;2023-09-30T03:44:49;101044.53;;;16.76;49.38
68654;BME280;55636;51.108;13.622;2023-09-30T03:45:52;101052.91;;;16.76;49.36
68654;BME280;55636;51.108;13.622;2023-09-30T03:46:58;101052.63;;;16.73;49.23
68654;BME280;55636;51.108;13.622;2023-09-30T03:48:01;101062.69;;;16.74;49.41
68654;BME280;55636;51.108;13.622;2023-09-30T03:49:04;101062.97;;;16.72;49.26
68654;BME280;55636;51.108;13.622;2023-09-30T03:50:08;101053.50;;;16.73;49.46
68654;BME280;55636;51.108;13.622;2023-09-30T03:51:17;101060.19;;;16.72;49.26
68654;BME280;55636;51.108;13.622;2023-09-30T03:52:20;101070.78;;;16.70;49.28
68654;BME280;55636;51.108;13.622;2023-09-30T03:53:25;101066.59;;;16.68;49.21
68654;BME280;55636;51.108;13.622;2023-09-30T03:54:28;101066.06;;;16.66;49.55
68654;BME280;55636;51.108;13.622;2023-09-30T03:55:31;101077.50;;;16.64;49.23
68654;BME280;55636;51.108;13.622;2023-09-30T03:56:34;101076.97;;;16.62;49.30
68654;BME280;55636;51.108;13.622;2023-09-30T03:57:36;101071.91;;;16.59;49.48
68654;BME280;55636;51.108;13.622;2023-09-30T03:58:40;101081.41;;;16.58;49.82
68654;BME280;55636;51.108;13.622;2023-09-30T03:59:43;101082.53;;;16.57;49.83
68654;BME280;55636;51.108;13.622;2023-09-30T04:00:48;101091.19;;;16.55;49.91
68654;BME280;55636;51.108;13.622;2023-09-30T04:01:52;101084.75;;;16.55;49.81
68654;BME280;55636;51.108;13.622;2023-09-30T04:02:55;101082.53;;;16.52;49.86
68654;BME280;55636;51.108;13.622;2023-09-30T04:04:01;101082.53;;;16.52;49.97
68654;BME280;55636;51.108;13.622;2023-09-30T04:05:04;101087.28;;;16.51;49.80
68654;BME280;55636;51.108;13.622;2023-09-30T04:06:07;101100.38;;;16.51;49.97
68654;BME280;55636;51.108;13.622;2023-09-30T04:07:10;101096.19;;;16.48;49.75
68654;BME280;55636;51.108;13.622;2023-09-30T04:08:12;101100.09;;;16.47;50.09
68654;BME280;55636;51.108;13.622;2023-09-30T04:09:17;101094.53;;;16.47;49.99
68654;BME280;55636;51.108;13.622;2023-09-30T04:10:20;101077.25;;;16.45;50.16
68654;BME280;55636;51.108;13.622;2023-09-30T04:11:24;101088.41;;;16.45;50.21
68654;BME280;55636;51.108;13.622;2023-09-30T04:12:28;101091.50;;;16.43;50.09
68654;BME280;55636;51.108;13.622;2023-09-30T04:13:31;101100.13;;;16.42;49.98
68654;BME280;55636;51.108;13.622;2023-09-30T04:14:35;101101.50;;;16.39;50.03
68654;BME280;55636;51.108;13.622;2023-09-30T04:15:37;101101.50;;;16.39;49.85
68654;BME280;55636;51.108;13.622;2023-09-30T04:16:40;101094.28;;;16.38;50.34
68654;BME280;55636;51.108;13.622;2023-09-30T04:17:44;101094.53;;;16.37;50.08
68654;BME280;55636;51.108;13.622;2023-09-30T04:18:47;101097.63;;;16.35;50.27
68654;BME280;55636;51.108;13.622;2023-09-30T04:19:53;101103.47;;;16.34;49.98
68654;BME280;55636;51.108;13.622;2023-09-30T04:20:55;101100.13;;;16.31;50.18
68654;BME280;55636;51.108;13.622;2023-09-30T04:21:58;101098.19;;;16.32;50.35
68654;BME280;55636;51.108;13.622;2023-09-30T04:23:00;101101.28;;;16.30;50.16
68654;BME280;55636;51.108;13.622;2023-09-30T04:24:05;101098.78;;;16.29;50.24
68654;BME280;55636;51.108;13.622;2023-09-30T04:25:09;101103.78;;;16.27;50.11
68654;BME280;55636;51.108;13.622;2023-09-30T04:26:13;101103.22;;;16.25;50.24
68654;BME280;55636;51.108;13.622;2023-09-30T04:27:17;101118.28;;;16.24;50.21
68654;BME280;55636;51.108;13.622;2023-09-30T04:28:19;101114.94;;;16.22;50.39
68654;BME280;55636;51.108;13.622;2023-09-30T04:29:22;101112.44;;;16.20;50.31
68654;BME280;55636;51.108;13.622;2023-09-30T04:30:25;101109.09;;;16.18;50.62
68654;BME280;55636;51.108;13.622;2023-09-30T04:31:29;101113.25;;;16.16;50.55
68654;BME280;55636;51.108;13.622;2023-09-30T04:32:32;101119.69;;;16.16;50.46
68654;BME280;55636;51.108;13.622;2023-09-30T04:33:35;101117.44;;;16.13;50.71
68654;BME280;55636;51.108;13.622;2023-09-30T04:34:38;101121.63;;;16.10;50.81
68654;BME280;55636;51.108;13.622;2023-09-30T04:35:41;101124.97;;;16.07;50.56
68654;BME280;55636;51.108;13.622;2023-09-30T04:36:44;101121.38;;;16.07;50.75
68654;BME280;55636;51.108;13.622;2023-09-30T04:37:47;101121.91;;;16.04;50.69
68654;BME280;55636;51.108;13.622;2023-09-30T04:38:49;101126.94;;;16.02;50.96
68654;BME280;55636;51.108;13.622;2023-09-30T04:39:52;101130.00;;;16.00;51.03
68654;BME280;55636;51.108;13.622;2023-09-30T04:40:55;101142.28;;;15.99;51.19
68654;BME280;55636;51.108;13.622;2023-09-30T04:41:58;101136.94;;;15.97;51.06
68654;BME280;55636;51.108;13.622;2023-09-30T04:43:03;101141.13;;;15.95;51.26
68654;BME280;55636;51.108;13.622;2023-09-30T04:44:06;101135.84;;;15.93;51.05
68654;BME280;55636;51.108;13.622;2023-09-30T04:45:10;101143.66;;;15.91;51.22
68654;BME280;55636;51.108;13.622;2023-09-30T04:46:12;101143.09;;;15.89;51.46
68654;BME280;55636;51.108;13.622;2023-09-30T04:47:15;101144.47;;;15.87;51.47
68654;BME280;55636;51.108;13.622;2023-09-30T04:48:18;101145.03;;;15.84;51.30
68654;BME280;55636;51.108;13.622;2023-09-30T04:49:21;101146.16;;;15.83;51.33
68654;BME280;55636;51.108;13.622;2023-09-30T04:50:23;101148.94;;;15.83;51.51
68654;BME280;55636;51.108;13.622;2023-09-30T04:51:26;101143.66;;;15.81;51.71
68654;BME280;55636;51.108;13.622;2023-09-30T04:52:28;101150.63;;;15.78;51.67
68654;BME280;55636;51.108;13.622;2023-09-30T04:53:32;101143.34;;;15.77;51.58
68654;BME280;55636;51.108;13.622;2023-09-30T04:54:36;101147.25;;;15.76;51.61
68654;BME280;55636;51.108;13.622;2023-09-30T04:55:38;101153.09;;;15.75;51.68
68654;BME280;55636;51.108;13.622;2023-09-30T04:56:41;101150.59;;;15.73;51.57
68654;BME280;55636;51.108;13.622;2023-09-30T04:57:44;101155.59;;;15.71;51.82
68654;BME280;55636;51.108;13.622;2023-09-30T04:58:47;101165.91;;;15.71;51.92
68654;BME280;55636;51.108;13.622;2023-09-30T04:59:50;101158.66;;;15.70;51.80
68654;BME280;55636;51.108;13.622;2023-09-30T05:00:53;101160.63;;;15.69;51.94
68654;BME280;55636;51.108;13.622;2023-09-30T05:01:55;101162.81;;;15.67;51.94
68654;BME280;55636;51.108;13.622;2023-09-30T05:02:58;101162.81;;;15.67;52.09
68654;BME280;55636;51.108;13.622;2023-09-30T05:04:02;101167.81;;;15.65;52.21
68654;BME280;55636;51.108;13.622;2023-09-30T05:05:06;101161.13;;;15.66;52.12
68654;BME280;55636;51.108;13.622;2023-09-30T05:06:09;101166.69;;;15.66;52.14
68654;BME280;55636;51.108;13.622;2023-09-30T05:07:11;101162.50;;;15.63;51.96
68654;BME280;55636;51.108;13.622;2023-09-30T05:08:15;101162.50;;;15.63;52.28
68654;BME280;55636;51.108;13.622;2023-09-30T05:09:18;101164.47;;;15.63;52.28
68654;BME280;55636;51.108;13.622;2023-09-30T05:10:21;101162.78;;;15.62;52.40
68654;BME280;55636;51.108;13.622;2023-09-30T05:11:23;101167.53;;;15.61;52.55
68654;BME280;55636;51.108;13.622;2023-09-30T05:12:26;101170.59;;;15.60;52.48
68654;BME280;55636;51.108;13.622;2023-09-30T05:13:29;101165.03;;;15.60;52.34
68654;BME280;55636;51.108;13.622;2023-09-30T05:14:32;101170.84;;;15.58;52.42
68654;BME280;55636;51.108;13.622;2023-09-30T05:15:35;101163.63;;;15.57;52.18
68654;BME280;55636;51.108;13.622;2023-09-30T05:16:37;101163.63;;;15.57;52.59
68654;BME280;55636;51.108;13.622;2023-09-30T05:17:40;101165.56;;;15.57;52.49
68654;BME280;55636;51.108;13.622;2023-09-30T05:18:43;101162.78;;;15.57;52.36
68654;BME280;55636;51.108;13.622;2023-09-30T05:19:45;101162.78;;;15.57;52.84
68654;BME280;55636;51.108;13.622;2023-09-30T05:20:48;101163.06;;;15.55;52.76
68654;BME280;55636;51.108;13.622;2023-09-30T05:21:51;101164.75;;;15.56;52.81
68654;BME280;55636;51.108;13.622;2023-09-30T05:22:54;101161.09;;;15.56;52.90
68654;BME280;55636;51.108;13.622;2023-09-30T05:23:57;101154.72;;;15.55;52.88
68654;BME280;55636;51.108;13.622;2023-09-30T05:25:00;101158.59;;;15.54;52.84
68654;BME280;55636;51.108;13.622;2023-09-30T05:26:02;101159.47;;;15.55;52.98
68654;BME280;55636;51.108;13.622;2023-09-30T05:27:05;101166.13;;;15.54;52.89